La Casita, Texas
Current Conditions -  °F | °C
As of 7:35 AM on Tuesday 21 Oct 2014 (Local Time) from KEBG Reporting Station
Haze Haze  
Wind Chill: 71°   Ceiling: Unl
Heat Index: 71°   Visibility: 5mi
Dew Point: 68°   Wind: 7mph
Humidity: 92%   Direction: 350°N
Pressure: 29.95"   Gusts: NA
Location:  26.5735°N, 98.695°W
Report Text: KEBG 211235Z AUTO 35006KT 5SM BR SCT027 22/20 A2995 RMK AO2 T02150201
Loading
Personal Weather Stations






























Interactive Weather Map
Tropical Storm Tracking
New forecast layout! Learn more

10-Day Weather Forecast

Advertisements
Track Severe Weather on mobile